Time;durP1;ratioP1;P1;durP2;ratioP2;P2;SDS_P1;SDS_P2;PMS_P1;PMS_P2;Temp;Humidity;BMP_temperature;BMP_pressure;BME280_temperature;BME280_humidity;BME280_pressure;Samples;Min_cycle;Max_cycle;Signal;HPM_P1;HPM_P2
2023/01/07 00:00:16;;;;;;;3.37;2.90;;;;;;;;;;5011170;28;20209;-61
2023/01/07 00:02:44;;;;;;;4.43;3.33;;;;;;;;;;5010500;28;20229;-61
2023/01/07 00:05:11;;;;;;;3.50;3.07;;;;;;;;;;5012171;28;20209;-61
2023/01/07 00:07:38;;;;;;;2.80;2.60;;;;;;;;;;5009892;28;20200;-61
2023/01/07 00:10:06;;;;;;;3.50;2.97;;;;;;;;;;5009075;28;20201;-60
2023/01/07 00:12:33;;;;;;;4.60;3.00;;;;;;;;;;5010864;28;20243;-60
2023/01/07 00:15:00;;;;;;;2.80;2.60;;;;;;;;;;5008619;28;20216;-61
2023/01/07 00:17:27;;;;;;;3.20;2.97;;;;;;;;;;5010558;28;20228;-61
2023/01/07 00:19:56;;;;;;;3.10;2.80;;;;;;;;;;5011649;28;20212;-61
2023/01/07 00:22:23;;;;;;;3.27;2.70;;;;;;;;;;5007897;28;20224;-61
2023/01/07 00:24:50;;;;;;;4.07;2.60;;;;;;;;;;5008088;28;20198;-61
2023/01/07 00:27:17;;;;;;;4.27;3.00;;;;;;;;;;5012399;28;20232;-61
2023/01/07 00:29:44;;;;;;;4.23;3.10;;;;;;;;;;5002269;28;20205;-60
2023/01/07 00:32:11;;;;;;;4.63;2.93;;;;;;;;;;5012544;28;20208;-62
2023/01/07 00:34:38;;;;;;;3.13;2.93;;;;;;;;;;5005962;28;20225;-59
2023/01/07 00:39:51;;;;;;;3.27;2.60;;;;;;;;;;5009560;28;20525;-61
2023/01/07 00:45:03;;;;;;;2.60;2.40;;;;;;;;;;5010180;28;20290;-61
2023/01/07 00:47:30;;;;;;;4.40;2.80;;;;;;;;;;5008044;28;20200;-60
2023/01/07 00:49:57;;;;;;;3.10;2.80;;;;;;;;;;5007202;28;20210;-61
2023/01/07 00:52:26;;;;;;;2.90;2.63;;;;;;;;;;5008701;28;20201;-61
2023/01/07 00:54:53;;;;;;;3.03;2.33;;;;;;;;;;5011135;28;20201;-62
2023/01/07 00:57:20;;;;;;;4.03;2.50;;;;;;;;;;5009301;28;20201;-61
2023/01/07 00:59:47;;;;;;;2.97;2.23;;;;;;;;;;5008931;28;20200;-61
2023/01/07 01:02:14;;;;;;;2.90;2.20;;;;;;;;;;5008453;28;20236;-60
2023/01/07 01:04:41;;;;;;;2.20;1.90;;;;;;;;;;5009599;28;20216;-61
2023/01/07 01:07:08;;;;;;;2.10;2.00;;;;;;;;;;5008010;28;20209;-61
2023/01/07 01:09:37;;;;;;;2.83;2.07;;;;;;;;;;5011015;28;20209;-61
2023/01/07 01:12:04;;;;;;;3.00;2.00;;;;;;;;;;5009588;28;20206;-61
2023/01/07 01:14:32;;;;;;;2.50;2.10;;;;;;;;;;5002489;28;20224;-61
2023/01/07 01:16:59;;;;;;;2.30;1.93;;;;;;;;;;5007856;28;20335;-61
2023/01/07 01:19:27;;;;;;;1.90;1.80;;;;;;;;;;5011781;28;20209;-59
2023/01/07 01:21:54;;;;;;;2.40;2.20;;;;;;;;;;5010974;28;20227;-60
2023/01/07 01:24:22;;;;;;;2.47;2.17;;;;;;;;;;5011109;28;20287;-61
2023/01/07 01:26:50;;;;;;;2.30;1.90;;;;;;;;;;5007237;28;20211;-61
2023/01/07 01:29:17;;;;;;;4.33;2.20;;;;;;;;;;5007796;28;20276;-61
2023/01/07 01:31:45;;;;;;;2.47;1.80;;;;;;;;;;5006011;28;20202;-61
2023/01/07 01:34:12;;;;;;;1.97;1.73;;;;;;;;;;5008833;28;20211;-61
2023/01/07 01:36:39;;;;;;;2.47;1.87;;;;;;;;;;5007742;28;20235;-60
2023/01/07 01:39:06;;;;;;;2.50;1.80;;;;;;;;;;5010265;28;20216;-61
2023/01/07 01:41:33;;;;;;;3.23;1.80;;;;;;;;;;5007621;28;20204;-59
2023/01/07 01:44:02;;;;;;;1.80;1.70;;;;;;;;;;5008090;28;20220;-60
2023/01/07 01:46:33;;;;;;;4.43;2.57;;;;;;;;;;5005628;28;20197;-61
2023/01/07 01:49:02;;;;;;;2.50;1.80;;;;;;;;;;5010605;28;20278;-61
2023/01/07 01:51:33;;;;;;;2.30;1.70;;;;;;;;;;5009328;28;20207;-61
2023/01/07 01:54:01;;;;;;;2.00;1.57;;;;;;;;;;5007507;28;20212;-60
2023/01/07 01:56:29;;;;;;;1.90;1.80;;;;;;;;;;5004646;28;20205;-59
2023/01/07 01:58:57;;;;;;;1.73;1.63;;;;;;;;;;5004505;28;20208;-61
2023/01/07 02:01:27;;;;;;;1.80;1.70;;;;;;;;;;5003191;28;20206;-61
2023/01/07 02:03:56;;;;;;;2.03;1.77;;;;;;;;;;5008462;28;20295;-57
2023/01/07 02:06:25;;;;;;;1.70;1.50;;;;;;;;;;5007895;28;20296;-61
2023/01/07 02:08:53;;;;;;;1.80;1.70;;;;;;;;;;5009281;28;20205;-61
2023/01/07 02:11:25;;;;;;;1.70;1.60;;;;;;;;;;5008226;28;20208;-60
2023/01/07 02:14:00;;;;;;;3.00;1.80;;;;;;;;;;5003185;28;20201;-61
2023/01/07 02:16:34;;;;;;;1.70;1.60;;;;;;;;;;5008304;28;20200;-61
2023/01/07 02:19:14;;;;;;;2.63;1.90;;;;;;;;;;5004078;28;20298;-61
2023/01/07 02:21:45;;;;;;;1.57;1.47;;;;;;;;;;5006565;28;20205;-61
2023/01/07 02:24:39;;;;;;;1.83;1.60;;;;;;;;;;5007746;28;20216;-61
2023/01/07 02:27:11;;;;;;;2.13;1.60;;;;;;;;;;4983858;28;20216;-61
2023/01/07 02:29:57;;;;;;;1.70;1.60;;;;;;;;;;5000775;28;20217;-60
2023/01/07 02:32:36;;;;;;;3.53;1.83;;;;;;;;;;5002653;28;20499;-60
2023/01/07 02:35:11;;;;;;;1.63;1.47;;;;;;;;;;5003607;28;20205;-61
2023/01/07 02:37:44;;;;;;;2.13;1.53;;;;;;;;;;5006996;28;20346;-60
2023/01/07 02:40:13;;;;;;;1.97;1.40;;;;;;;;;;5004609;28;20228;-61
2023/01/07 02:42:44;;;;;;;3.00;1.40;;;;;;;;;;5005172;28;20224;-60
2023/01/07 02:45:17;;;;;;;1.63;1.53;;;;;;;;;;4999321;28;20210;-60
2023/01/07 02:47:48;;;;;;;1.77;1.30;;;;;;;;;;5006308;28;20193;-60
2023/01/07 02:50:15;;;;;;;1.60;1.50;;;;;;;;;;5010328;28;20209;-61
2023/01/07 02:52:42;;;;;;;1.63;1.50;;;;;;;;;;5006269;28;20201;-61
2023/01/07 02:55:12;;;;;;;1.43;1.30;;;;;;;;;;5008920;28;20209;-61
2023/01/07 02:57:54;;;;;;;2.53;1.43;;;;;;;;;;5005742;28;20208;-61
2023/01/07 03:00:37;;;;;;;1.40;1.30;;;;;;;;;;5003368;28;20213;-61
2023/01/07 03:03:21;;;;;;;1.50;1.40;;;;;;;;;;5003529;28;20229;-61
2023/01/07 03:05:56;;;;;;;2.37;1.77;;;;;;;;;;5006281;28;20211;-60
2023/01/07 03:08:31;;;;;;;3.03;1.40;;;;;;;;;;4997716;28;20212;-60
2023/01/07 03:10:59;;;;;;;2.27;1.50;;;;;;;;;;5007204;28;20215;-61
2023/01/07 03:13:29;;;;;;;2.37;1.40;;;;;;;;;;5007032;28;20201;-61
2023/01/07 03:16:01;;;;;;;2.13;1.40;;;;;;;;;;5003853;28;20211;-61
2023/01/07 03:18:31;;;;;;;1.83;1.50;;;;;;;;;;5006934;28;20233;-60
2023/01/07 03:21:00;;;;;;;2.57;1.50;;;;;;;;;;5008072;28;20201;-61
2023/01/07 03:23:29;;;;;;;2.00;1.33;;;;;;;;;;5003771;28;20232;-61
2023/01/07 03:25:58;;;;;;;1.67;1.50;;;;;;;;;;5002327;28;20225;-61
2023/01/07 03:28:26;;;;;;;1.70;1.40;;;;;;;;;;5008221;28;20208;-60
2023/01/07 03:30:55;;;;;;;2.50;1.67;;;;;;;;;;4999744;28;20211;-60
2023/01/07 03:33:25;;;;;;;1.40;1.30;;;;;;;;;;5003897;28;20201;-60
2023/01/07 03:35:55;;;;;;;1.53;1.40;;;;;;;;;;5009059;28;20194;-61
2023/01/07 03:38:23;;;;;;;1.53;1.43;;;;;;;;;;5004572;28;20205;-60
2023/01/07 03:40:51;;;;;;;2.20;1.50;;;;;;;;;;5009810;28;20205;-61
2023/01/07 03:43:18;;;;;;;1.60;1.40;;;;;;;;;;5008275;28;20228;-61
2023/01/07 03:45:46;;;;;;;1.63;1.50;;;;;;;;;;5012949;28;20292;-61
2023/01/07 03:48:13;;;;;;;1.73;1.30;;;;;;;;;;5010593;28;20204;-61
2023/01/07 03:50:40;;;;;;;1.60;1.50;;;;;;;;;;5010208;28;20201;-59
2023/01/07 03:53:08;;;;;;;2.33;1.40;;;;;;;;;;5006976;28;20201;-60
2023/01/07 03:55:36;;;;;;;1.53;1.43;;;;;;;;;;5002109;28;20205;-60
2023/01/07 03:58:03;;;;;;;1.23;1.20;;;;;;;;;;5007460;28;20220;-60
2023/01/07 04:00:30;;;;;;;1.50;1.40;;;;;;;;;;5008604;28;20224;-60
2023/01/07 04:02:57;;;;;;;2.03;1.53;;;;;;;;;;5007338;28;20220;-59
2023/01/07 04:05:24;;;;;;;1.93;1.50;;;;;;;;;;5007648;28;20205;-61
2023/01/07 04:07:51;;;;;;;1.60;1.50;;;;;;;;;;5008159;28;20205;-60
2023/01/07 04:10:20;;;;;;;1.63;1.37;;;;;;;;;;5009263;28;20197;-61
2023/01/07 04:12:47;;;;;;;1.40;1.30;;;;;;;;;;5011522;28;20237;-61
2023/01/07 04:15:14;;;;;;;2.60;1.73;;;;;;;;;;5007472;28;20224;-61
2023/01/07 04:17:41;;;;;;;2.13;1.40;;;;;;;;;;5010879;28;20233;-61
2023/01/07 04:20:09;;;;;;;2.17;1.53;;;;;;;;;;5011890;28;20197;-59
2023/01/07 04:22:36;;;;;;;1.30;1.30;;;;;;;;;;5009305;28;20223;-61
2023/01/07 04:25:03;;;;;;;1.90;1.67;;;;;;;;;;5007782;28;20205;-61
2023/01/07 04:27:32;;;;;;;1.80;1.70;;;;;;;;;;5013295;28;20208;-61
2023/01/07 04:29:59;;;;;;;2.60;1.80;;;;;;;;;;5005644;28;20263;-60
2023/01/07 04:32:26;;;;;;;2.93;2.20;;;;;;;;;;5000709;28;20216;-59
2023/01/07 04:34:53;;;;;;;2.40;1.67;;;;;;;;;;5009177;28;20199;-61
2023/01/07 04:37:21;;;;;;;3.30;1.80;;;;;;;;;;5006106;28;20205;-61
2023/01/07 04:39:48;;;;;;;1.90;1.80;;;;;;;;;;5005916;28;20201;-60
2023/01/07 04:42:15;;;;;;;2.70;2.00;;;;;;;;;;5010915;28;20215;-60
2023/01/07 04:44:44;;;;;;;2.40;2.20;;;;;;;;;;5006886;28;20201;-61
2023/01/07 04:47:11;;;;;;;2.10;1.90;;;;;;;;;;5007028;28;20205;-60
2023/01/07 04:49:38;;;;;;;2.63;1.70;;;;;;;;;;5005674;28;20201;-61
2023/01/07 04:52:05;;;;;;;2.83;2.03;;;;;;;;;;5011198;28;20209;-60
2023/01/07 04:54:32;;;;;;;2.10;2.00;;;;;;;;;;5008456;28;20208;-61
2023/01/07 04:56:59;;;;;;;2.10;2.00;;;;;;;;;;5004048;28;20218;-60
2023/01/07 04:59:26;;;;;;;2.33;2.10;;;;;;;;;;5009170;28;20204;-60
2023/01/07 05:01:55;;;;;;;2.13;1.80;;;;;;;;;;5005958;28;20204;-60
2023/01/07 05:04:22;;;;;;;2.10;1.90;;;;;;;;;;5006813;28;20225;-61
2023/01/07 05:06:49;;;;;;;3.10;2.33;;;;;;;;;;5003003;28;20209;-59
2023/01/07 05:09:16;;;;;;;2.53;1.83;;;;;;;;;;5008942;28;20205;-61
2023/01/07 05:11:43;;;;;;;2.27;2.07;;;;;;;;;;5004613;28;20434;-60
2023/01/07 05:14:11;;;;;;;2.77;2.00;;;;;;;;;;5005762;28;20208;-61
2023/01/07 05:16:39;;;;;;;6.70;2.27;;;;;;;;;;5008258;28;20213;-60
2023/01/07 05:19:07;;;;;;;1.97;1.87;;;;;;;;;;5010684;28;20208;-61
2023/01/07 05:21:35;;;;;;;2.53;2.33;;;;;;;;;;5006767;28;20209;-61
2023/01/07 05:24:02;;;;;;;3.50;2.33;;;;;;;;;;5003278;28;20228;-61
2023/01/07 05:26:29;;;;;;;3.70;2.43;;;;;;;;;;5008282;28;20205;-61
2023/01/07 05:28:56;;;;;;;2.60;2.40;;;;;;;;;;5008437;28;20209;-61
2023/01/07 05:31:23;;;;;;;3.23;2.60;;;;;;;;;;5008958;28;20204;-61
2023/01/07 05:33:50;;;;;;;4.20;3.50;;;;;;;;;;5010997;28;20197;-61
2023/01/07 05:36:19;;;;;;;3.13;2.77;;;;;;;;;;5006805;28;20204;-61
2023/01/07 05:38:46;;;;;;;3.40;2.87;;;;;;;;;;5008205;28;20209;-61
2023/01/07 05:41:13;;;;;;;3.57;2.70;;;;;;;;;;5003990;28;20210;-60
2023/01/07 05:43:40;;;;;;;3.90;2.83;;;;;;;;;;5002351;28;20217;-61
2023/01/07 05:46:07;;;;;;;2.60;2.40;;;;;;;;;;5002038;28;20209;-61
2023/01/07 05:48:34;;;;;;;4.00;2.50;;;;;;;;;;5005053;28;20208;-61
2023/01/07 05:51:01;;;;;;;3.63;2.60;;;;;;;;;;5013081;28;20217;-61
2023/01/07 05:53:30;;;;;;;2.60;2.40;;;;;;;;;;5004685;28;20193;-61
2023/01/07 05:55:57;;;;;;;2.70;2.50;;;;;;;;;;5006893;28;20216;-60
2023/01/07 05:58:24;;;;;;;3.27;2.50;;;;;;;;;;4996488;28;20205;-60
2023/01/07 06:00:51;;;;;;;3.23;2.53;;;;;;;;;;4999140;28;20201;-61
2023/01/07 06:03:20;;;;;;;2.93;2.40;;;;;;;;;;5007870;28;20228;-60
2023/01/07 06:05:47;;;;;;;2.70;2.50;;;;;;;;;;5005177;28;20201;-61
2023/01/07 06:08:14;;;;;;;3.10;2.70;;;;;;;;;;5009345;28;20224;-61
2023/01/07 06:10:43;;;;;;;2.47;2.33;;;;;;;;;;5008054;28;20197;-61
2023/01/07 06:13:10;;;;;;;2.97;2.63;;;;;;;;;;5012525;28;20197;-61
2023/01/07 06:15:37;;;;;;;2.83;2.60;;;;;;;;;;5007289;28;20205;-60
2023/01/07 06:18:04;;;;;;;2.40;2.20;;;;;;;;;;5009330;28;20243;-60
2023/01/07 06:20:33;;;;;;;2.40;2.20;;;;;;;;;;5006300;28;20224;-61
2023/01/07 06:23:01;;;;;;;2.63;2.43;;;;;;;;;;5005515;28;20241;-60
2023/01/07 06:25:29;;;;;;;3.23;2.53;;;;;;;;;;5006009;28;20204;-60
2023/01/07 06:27:58;;;;;;;2.50;2.30;;;;;;;;;;5004594;28;20244;-61
2023/01/07 06:30:25;;;;;;;2.60;2.40;;;;;;;;;;5006556;28;20208;-60
2023/01/07 06:32:53;;;;;;;4.10;3.70;;;;;;;;;;5003970;28;20207;-61
2023/01/07 06:35:20;;;;;;;5.83;4.60;;;;;;;;;;5007258;28;20211;-60
2023/01/07 06:37:47;;;;;;;4.43;4.03;;;;;;;;;;5003491;28;20201;-61
2023/01/07 06:40:14;;;;;;;4.50;4.10;;;;;;;;;;5009185;28;20205;-61
2023/01/07 06:42:41;;;;;;;3.47;3.17;;;;;;;;;;5003841;28;20206;-60
2023/01/07 06:45:10;;;;;;;3.53;3.27;;;;;;;;;;5002660;28;20217;-61
2023/01/07 06:47:37;;;;;;;4.27;3.80;;;;;;;;;;5008961;28;20227;-61
2023/01/07 06:50:05;;;;;;;3.50;3.20;;;;;;;;;;5009634;28;20227;-60
2023/01/07 06:52:32;;;;;;;3.80;3.17;;;;;;;;;;5005829;28;20295;-61
2023/01/07 06:54:59;;;;;;;3.90;2.93;;;;;;;;;;5009851;28;20189;-60
2023/01/07 06:57:26;;;;;;;3.67;3.37;;;;;;;;;;5004864;28;20213;-61
2023/01/07 06:59:53;;;;;;;4.20;3.90;;;;;;;;;;5003466;28;20200;-61
2023/01/07 07:02:23;;;;;;;5.00;3.60;;;;;;;;;;5010300;28;20212;-61
2023/01/07 07:04:50;;;;;;;3.73;3.43;;;;;;;;;;5006311;28;20232;-61
2023/01/07 07:09:49;;;;;;;4.10;3.70;;;;;;;;;;5046835;23;20234;-57
2023/01/07 07:12:18;;;;;;;3.73;3.43;;;;;;;;;;5049633;28;20222;-57
2023/01/07 07:14:45;;;;;;;3.67;3.37;;;;;;;;;;5049709;28;20297;-59
2023/01/07 07:17:12;;;;;;;4.03;3.70;;;;;;;;;;5049960;28;20196;-58
2023/01/07 07:19:40;;;;;;;3.80;3.50;;;;;;;;;;5053646;28;20215;-56
2023/01/07 07:22:08;;;;;;;4.10;3.80;;;;;;;;;;5048698;28;20203;-58
2023/01/07 07:24:35;;;;;;;3.93;3.63;;;;;;;;;;5048129;28;20235;-56
2023/01/07 07:27:02;;;;;;;3.50;3.30;;;;;;;;;;5052356;28;20207;-57
2023/01/07 07:29:29;;;;;;;4.43;3.40;;;;;;;;;;5054850;28;20211;-57
2023/01/07 07:31:56;;;;;;;3.43;3.23;;;;;;;;;;5054874;28;20199;-58
2023/01/07 07:34:23;;;;;;;4.23;3.27;;;;;;;;;;5051481;28;20200;-59
2023/01/07 07:36:52;;;;;;;3.53;3.23;;;;;;;;;;5048885;28;20215;-56
2023/01/07 07:39:19;;;;;;;3.47;3.20;;;;;;;;;;5049119;28;20195;-58
2023/01/07 07:41:46;;;;;;;3.80;3.40;;;;;;;;;;5046397;28;20208;-58
2023/01/07 07:44:13;;;;;;;3.40;3.10;;;;;;;;;;5050693;28;20222;-57
2023/01/07 07:46:40;;;;;;;3.60;3.30;;;;;;;;;;5052122;28;20203;-57
2023/01/07 07:49:07;;;;;;;3.70;3.40;;;;;;;;;;5051118;28;20210;-57
2023/01/07 07:51:35;;;;;;;3.60;3.40;;;;;;;;;;5046521;28;20230;-57
2023/01/07 07:54:03;;;;;;;3.30;3.00;;;;;;;;;;5052080;28;20203;-57
2023/01/07 07:56:31;;;;;;;4.00;3.60;;;;;;;;;;5050058;28;20199;-59
2023/01/07 07:58:58;;;;;;;4.00;3.70;;;;;;;;;;5041659;28;20207;-57
2023/01/07 08:01:25;;;;;;;4.50;4.10;;;;;;;;;;5049297;28;20207;-55
2023/01/07 08:03:52;;;;;;;3.80;3.50;;;;;;;;;;5048353;28;20227;-56
2023/01/07 08:06:19;;;;;;;4.40;4.00;;;;;;;;;;5047009;28;20204;-56
2023/01/07 08:08:46;;;;;;;4.00;3.60;;;;;;;;;;5048498;28;20253;-59
2023/01/07 08:11:15;;;;;;;3.73;3.47;;;;;;;;;;5045769;28;20200;-57
2023/01/07 08:13:42;;;;;;;3.97;3.67;;;;;;;;;;5050143;28;20207;-58
2023/01/07 08:16:09;;;;;;;4.10;3.37;;;;;;;;;;5047111;28;20207;-56
2023/01/07 08:18:36;;;;;;;4.03;3.73;;;;;;;;;;5049006;28;20212;-57
2023/01/07 08:21:03;;;;;;;3.70;3.30;;;;;;;;;;5045544;28;20207;-57
2023/01/07 08:23:31;;;;;;;3.47;3.27;;;;;;;;;;5047494;28;20209;-57
2023/01/07 08:25:59;;;;;;;3.27;3.07;;;;;;;;;;5048597;28;20204;-57
2023/01/07 08:28:28;;;;;;;3.50;3.20;;;;;;;;;;5050619;28;20230;-57
2023/01/07 08:30:55;;;;;;;5.13;3.10;;;;;;;;;;5050585;28;20218;-57
2023/01/07 08:33:22;;;;;;;3.13;2.83;;;;;;;;;;5052590;28;20211;-58
2023/01/07 08:35:49;;;;;;;3.20;2.90;;;;;;;;;;5048134;28;20199;-58
2023/01/07 08:38:16;;;;;;;3.10;2.80;;;;;;;;;;5044304;28;20196;-59
2023/01/07 08:40:44;;;;;;;2.97;2.70;;;;;;;;;;5048612;28;20196;-57
2023/01/07 08:43:11;;;;;;;3.00;2.53;;;;;;;;;;5049389;28;20226;-55
2023/01/07 08:45:39;;;;;;;2.83;2.50;;;;;;;;;;5048877;28;20234;-56
2023/01/07 08:48:07;;;;;;;2.53;2.20;;;;;;;;;;5043670;28;20218;-56
2023/01/07 08:50:34;;;;;;;2.60;2.40;;;;;;;;;;5049339;28;20211;-56
2023/01/07 08:53:01;;;;;;;2.60;2.30;;;;;;;;;;5046502;28;20203;-59
2023/01/07 08:55:28;;;;;;;2.73;2.37;;;;;;;;;;5047489;28;20211;-57
2023/01/07 08:57:55;;;;;;;2.20;2.10;;;;;;;;;;5047097;28;20207;-59
2023/01/07 09:00:23;;;;;;;2.37;2.03;;;;;;;;;;5048000;28;20223;-57
2023/01/07 09:02:51;;;;;;;4.10;2.10;;;;;;;;;;5042115;28;20231;-58
2023/01/07 09:05:18;;;;;;;2.30;2.10;;;;;;;;;;5047524;28;20231;-57
2023/01/07 09:07:45;;;;;;;2.53;2.10;;;;;;;;;;5047422;28;20212;-57
2023/01/07 09:10:12;;;;;;;2.37;2.17;;;;;;;;;;5044173;28;20232;-57
2023/01/07 09:12:40;;;;;;;2.43;2.20;;;;;;;;;;5048727;28;20196;-58
2023/01/07 09:15:07;;;;;;;2.10;1.90;;;;;;;;;;5050717;28;20207;-57
2023/01/07 09:17:34;;;;;;;1.87;1.77;;;;;;;;;;5047493;28;20195;-58
2023/01/07 09:20:03;;;;;;;3.77;2.00;;;;;;;;;;5047775;28;20203;-58
2023/01/07 09:22:31;;;;;;;2.93;1.73;;;;;;;;;;5046594;28;20204;-58
2023/01/07 09:24:58;;;;;;;1.70;1.60;;;;;;;;;;5041545;28;20207;-57
2023/01/07 09:27:25;;;;;;;1.83;1.73;;;;;;;;;;5040737;28;20274;-58
2023/01/07 09:29:53;;;;;;;2.77;1.70;;;;;;;;;;5044037;28;20196;-58
2023/01/07 09:32:20;;;;;;;2.50;1.83;;;;;;;;;;5043489;28;20192;-56
2023/01/07 09:34:47;;;;;;;1.63;1.53;;;;;;;;;;5045833;28;21564;-58
2023/01/07 09:37:16;;;;;;;1.60;1.50;;;;;;;;;;5042021;28;20226;-58
2023/01/07 09:39:43;;;;;;;1.47;1.40;;;;;;;;;;5041850;28;20219;-58
2023/01/07 09:42:14;;;;;;;2.97;1.60;;;;;;;;;;5046832;28;20290;-57
2023/01/07 09:44:50;;;;;;;2.03;1.50;;;;;;;;;;5044570;28;20223;-56
2023/01/07 09:47:18;;;;;;;1.50;1.40;;;;;;;;;;5049673;28;20195;-58
2023/01/07 09:49:47;;;;;;;1.53;1.30;;;;;;;;;;5047130;28;20199;-58
2023/01/07 09:52:18;;;;;;;1.37;1.27;;;;;;;;;;5047112;28;20202;-57
2023/01/07 09:54:46;;;;;;;1.40;1.30;;;;;;;;;;5045788;28;20192;-57
2023/01/07 09:57:15;;;;;;;4.30;1.53;;;;;;;;;;5046516;28;20211;-58
2023/01/07 09:59:42;;;;;;;1.33;1.20;;;;;;;;;;5045833;28;20199;-56
2023/01/07 10:02:17;;;;;;;1.43;1.20;;;;;;;;;;5045310;28;20199;-57
2023/01/07 10:04:50;;;;;;;1.30;1.00;;;;;;;;;;5047428;28;20276;-57
2023/01/07 10:07:22;;;;;;;1.00;1.00;;;;;;;;;;5044582;28;20207;-58
2023/01/07 10:09:56;;;;;;;1.10;1.00;;;;;;;;;;5044901;28;20231;-58
2023/01/07 10:12:25;;;;;;;1.10;1.10;;;;;;;;;;5033791;28;20319;-60
2023/01/07 10:15:02;;;;;;;0.80;0.80;;;;;;;;;;5044193;28;20191;-56
2023/01/07 10:17:34;;;;;;;1.00;0.90;;;;;;;;;;5044380;28;20203;-58
2023/01/07 10:20:04;;;;;;;0.80;0.80;;;;;;;;;;5045024;28;20208;-56
2023/01/07 10:22:34;;;;;;;0.93;0.80;;;;;;;;;;5045545;28;20208;-57
2023/01/07 10:25:04;;;;;;;1.63;0.77;;;;;;;;;;5047524;28;20223;-58
2023/01/07 10:27:34;;;;;;;0.93;0.70;;;;;;;;;;5048375;28;20207;-58
2023/01/07 10:30:02;;;;;;;1.20;0.67;;;;;;;;;;5044561;28;20253;-58
2023/01/07 10:32:32;;;;;;;0.80;0.80;;;;;;;;;;5044140;28;20200;-57
2023/01/07 10:35:00;;;;;;;1.10;0.80;;;;;;;;;;5047714;28;20285;-57
2023/01/07 10:37:29;;;;;;;0.83;0.80;;;;;;;;;;5042601;28;20207;-58
2023/01/07 10:40:01;;;;;;;0.80;0.80;;;;;;;;;;5045334;28;20204;-57
2023/01/07 10:42:31;;;;;;;0.80;0.80;;;;;;;;;;5046298;28;20206;-57
2023/01/07 10:45:23;;;;;;;1.00;0.90;;;;;;;;;;5041824;28;20205;-57
2023/01/07 10:48:05;;;;;;;0.80;0.80;;;;;;;;;;5045293;28;20204;-58
2023/01/07 10:50:42;;;;;;;0.90;0.90;;;;;;;;;;5030634;28;20226;-59
2023/01/07 10:53:14;;;;;;;1.00;1.00;;;;;;;;;;5047633;28;20199;-57
2023/01/07 10:55:48;;;;;;;1.07;1.07;;;;;;;;;;5039324;28;20192;-57
2023/01/07 10:58:15;;;;;;;1.87;1.10;;;;;;;;;;5050676;28;20200;-58
2023/01/07 11:00:42;;;;;;;1.17;1.10;;;;;;;;;;5047686;28;20192;-56
2023/01/07 11:03:16;;;;;;;1.80;1.07;;;;;;;;;;5045527;28;20206;-58
2023/01/07 11:05:43;;;;;;;1.20;1.10;;;;;;;;;;5044174;28;20207;-56
2023/01/07 11:08:13;;;;;;;2.40;1.00;;;;;;;;;;5045033;28;20196;-57
2023/01/07 11:10:40;;;;;;;1.47;1.20;;;;;;;;;;5028298;28;20199;-57
2023/01/07 11:13:13;;;;;;;1.50;1.40;;;;;;;;;;5042998;28;20199;-57
2023/01/07 11:15:44;;;;;;;1.80;1.70;;;;;;;;;;5045204;28;20199;-57
2023/01/07 11:18:13;;;;;;;2.23;1.50;;;;;;;;;;5040534;28;20211;-58
2023/01/07 11:20:45;;;;;;;3.00;1.70;;;;;;;;;;5041586;28;20206;-58
2023/01/07 11:23:19;;;;;;;1.40;1.30;;;;;;;;;;5032371;28;20206;-58
2023/01/07 11:25:47;;;;;;;2.17;1.60;;;;;;;;;;5042769;28;20288;-58
2023/01/07 11:28:19;;;;;;;1.80;1.70;;;;;;;;;;5048196;28;20208;-57
2023/01/07 11:30:55;;;;;;;1.70;1.60;;;;;;;;;;5045255;28;20205;-57
2023/01/07 11:33:25;;;;;;;1.60;1.50;;;;;;;;;;5046172;28;20204;-59
2023/01/07 11:35:52;;;;;;;1.77;1.67;;;;;;;;;;5047117;28;20210;-55
2023/01/07 11:38:29;;;;;;;3.53;1.87;;;;;;;;;;5045001;28;20195;-58
2023/01/07 11:40:57;;;;;;;1.97;1.87;;;;;;;;;;5042555;28;20199;-56
2023/01/07 11:43:26;;;;;;;2.93;1.80;;;;;;;;;;5047827;28;20219;-58
2023/01/07 11:45:54;;;;;;;3.43;2.10;;;;;;;;;;5043987;28;20218;-56
2023/01/07 11:48:26;;;;;;;2.10;1.90;;;;;;;;;;5032895;28;20212;-59
2023/01/07 11:50:57;;;;;;;2.07;1.80;;;;;;;;;;5041069;28;20214;-56
2023/01/07 11:53:31;;;;;;;1.93;1.83;;;;;;;;;;5047720;28;20210;-58
2023/01/07 11:55:59;;;;;;;2.33;2.23;;;;;;;;;;5049740;28;20200;-59
2023/01/07 11:58:28;;;;;;;2.30;2.20;;;;;;;;;;5050167;28;20210;-57
2023/01/07 12:01:03;;;;;;;2.10;2.00;;;;;;;;;;5042012;28;20211;-57
2023/01/07 12:03:31;;;;;;;2.10;2.00;;;;;;;;;;5051018;28;20199;-55
2023/01/07 12:05:59;;;;;;;2.27;2.07;;;;;;;;;;5050274;28;20215;-57
2023/01/07 12:08:26;;;;;;;2.90;2.30;;;;;;;;;;5053200;28;20305;-58
2023/01/07 12:10:57;;;;;;;2.10;1.90;;;;;;;;;;5046000;28;20193;-58
2023/01/07 12:13:26;;;;;;;2.40;2.20;;;;;;;;;;5039774;28;20207;-57
2023/01/07 12:15:57;;;;;;;2.60;2.40;;;;;;;;;;5048524;28;20290;-57
2023/01/07 12:18:39;;;;;;;2.20;2.10;;;;;;;;;;5045364;28;20199;-58
2023/01/07 12:21:25;;;;;;;2.20;2.00;;;;;;;;;;5045494;28;20207;-59
2023/01/07 12:23:57;;;;;;;2.40;2.20;;;;;;;;;;5046566;28;20196;-57
2023/01/07 12:26:26;;;;;;;2.40;2.20;;;;;;;;;;5054047;28;20207;-58
2023/01/07 12:29:02;;;;;;;2.40;2.20;;;;;;;;;;5046050;28;20196;-58
2023/01/07 12:31:37;;;;;;;2.33;2.20;;;;;;;;;;5042002;28;20206;-57
2023/01/07 12:34:09;;;;;;;2.50;2.30;;;;;;;;;;5050104;28;20209;-58
2023/01/07 12:36:40;;;;;;;2.07;1.93;;;;;;;;;;5042944;28;20227;-57
2023/01/07 12:39:11;;;;;;;2.50;2.30;;;;;;;;;;5044167;28;20200;-56
2023/01/07 12:41:39;;;;;;;3.70;3.40;;;;;;;;;;5045706;28;20203;-57
2023/01/07 12:44:12;;;;;;;2.60;2.40;;;;;;;;;;5046335;28;20196;-58
2023/01/07 12:46:42;;;;;;;2.40;2.27;;;;;;;;;;5047591;28;20242;-58
2023/01/07 12:49:15;;;;;;;2.67;2.47;;;;;;;;;;5046589;28;20201;-57
2023/01/07 12:51:44;;;;;;;2.40;2.20;;;;;;;;;;5047379;28;20207;-57
2023/01/07 12:54:16;;;;;;;2.50;2.30;;;;;;;;;;5045884;28;20219;-58
2023/01/07 12:56:46;;;;;;;2.87;2.67;;;;;;;;;;5045616;28;20188;-57
2023/01/07 12:59:15;;;;;;;2.87;2.50;;;;;;;;;;5044550;28;20206;-58
2023/01/07 13:01:45;;;;;;;2.50;2.30;;;;;;;;;;5042667;28;20214;-55
2023/01/07 13:04:17;;;;;;;2.63;2.43;;;;;;;;;;5048358;28;20214;-57
2023/01/07 13:06:46;;;;;;;2.80;2.53;;;;;;;;;;5041931;28;20208;-56
2023/01/07 13:09:25;;;;;;;2.57;2.37;;;;;;;;;;5043017;28;22161;-58
2023/01/07 13:14:43;;;;;;;2.87;2.43;;;;;;;;;;5048922;28;20199;-58
2023/01/07 13:17:17;;;;;;;3.10;2.33;;;;;;;;;;5046316;28;20202;-58
2023/01/07 13:19:44;;;;;;;2.67;2.47;;;;;;;;;;5040702;28;20212;-55
2023/01/07 13:22:16;;;;;;;3.20;2.47;;;;;;;;;;5045278;28;20199;-59
2023/01/07 13:24:49;;;;;;;2.40;2.20;;;;;;;;;;5046311;28;20199;-58
2023/01/07 13:27:21;;;;;;;2.60;2.40;;;;;;;;;;5047395;28;20220;-58
2023/01/07 13:29:59;;;;;;;2.50;2.30;;;;;;;;;;5049044;28;20196;-57
2023/01/07 13:32:44;;;;;;;2.60;2.27;;;;;;;;;;5047819;28;20206;-58
2023/01/07 13:35:24;;;;;;;2.23;2.13;;;;;;;;;;5052523;28;20203;-59
2023/01/07 13:37:58;;;;;;;4.73;2.60;;;;;;;;;;5046387;28;20282;-55
2023/01/07 13:40:41;;;;;;;2.60;2.40;;;;;;;;;;5049670;28;20199;-57
2023/01/07 13:43:13;;;;;;;2.80;2.60;;;;;;;;;;5047889;28;20200;-58
2023/01/07 13:45:41;;;;;;;2.77;2.43;;;;;;;;;;5043415;28;20211;-58
2023/01/07 13:48:18;;;;;;;2.70;2.50;;;;;;;;;;5047873;28;20290;-57
2023/01/07 13:50:45;;;;;;;3.10;2.90;;;;;;;;;;5038029;28;20210;-58
2023/01/07 13:53:27;;;;;;;2.80;2.60;;;;;;;;;;5044083;28;20210;-57
2023/01/07 13:56:14;;;;;;;2.80;2.50;;;;;;;;;;5045653;28;20195;-59
2023/01/07 13:58:45;;;;;;;2.80;2.60;;;;;;;;;;5042986;28;20208;-57
2023/01/07 14:01:13;;;;;;;2.80;2.47;;;;;;;;;;5043848;28;20203;-57
2023/01/07 14:03:49;;;;;;;2.60;2.40;;;;;;;;;;5043084;28;20212;-58
2023/01/07 14:06:43;;;;;;;2.63;2.43;;;;;;;;;;5039621;28;20226;-58
2023/01/07 14:09:34;;;;;;;2.60;2.40;;;;;;;;;;5044514;28;20233;-58
2023/01/07 14:12:20;;;;;;;2.43;2.23;;;;;;;;;;5047570;28;20200;-58
2023/01/07 14:14:51;;;;;;;4.43;2.50;;;;;;;;;;5046905;28;20196;-57
2023/01/07 14:17:22;;;;;;;3.03;2.73;;;;;;;;;;5043821;28;20195;-59
2023/01/07 14:19:55;;;;;;;2.67;2.47;;;;;;;;;;5046022;28;20203;-57
2023/01/07 14:22:27;;;;;;;2.60;2.40;;;;;;;;;;5042939;28;20200;-57
2023/01/07 14:25:03;;;;;;;2.70;2.50;;;;;;;;;;5049662;28;20199;-57
2023/01/07 14:27:45;;;;;;;2.83;2.57;;;;;;;;;;5048925;28;20214;-57
2023/01/07 14:30:19;;;;;;;3.13;2.70;;;;;;;;;;5042899;28;20200;-58
2023/01/07 14:32:47;;;;;;;2.93;2.40;;;;;;;;;;5042469;28;20216;-58
2023/01/07 14:35:23;;;;;;;2.50;2.30;;;;;;;;;;5044554;28;20256;-58
2023/01/07 14:37:51;;;;;;;2.57;2.37;;;;;;;;;;5043758;28;20211;-57
2023/01/07 14:40:38;;;;;;;2.70;2.50;;;;;;;;;;5049219;28;20203;-58
2023/01/07 14:43:27;;;;;;;3.50;3.20;;;;;;;;;;5044362;28;20271;-58
2023/01/07 14:45:54;;;;;;;2.90;2.57;;;;;;;;;;5040922;28;20219;-58
2023/01/07 14:48:35;;;;;;;3.53;2.43;;;;;;;;;;5046785;28;20200;-58
2023/01/07 14:51:16;;;;;;;2.60;2.40;;;;;;;;;;5049942;28;20234;-57
2023/01/07 14:54:01;;;;;;;3.00;2.57;;;;;;;;;;5045351;28;20199;-57
2023/01/07 14:56:35;;;;;;;2.60;2.40;;;;;;;;;;5048518;28;20191;-59
2023/01/07 14:59:11;;;;;;;2.77;2.53;;;;;;;;;;5045362;28;20206;-57
2023/01/07 15:01:45;;;;;;;2.63;2.30;;;;;;;;;;5044919;28;20225;-57
2023/01/07 15:04:26;;;;;;;2.80;2.30;;;;;;;;;;5044349;28;20214;-58
2023/01/07 15:06:57;;;;;;;2.40;2.20;;;;;;;;;;5048782;28;20325;-56
2023/01/07 15:18:00;;;;;;;2.57;2.00;;;;;;;;;;5004208;28;20211;-58